Latest Weather Observations for Sydney Olympic Park

IDN60801

Issued at 1:34 pm EDT Saturday 20 December 2014 (issued every 30 minutes, with the page automatically refreshed every 10 minutes)

About weather observations | Map of weather stations | Latest weather observations for NSW | Other Formats
Station Details ID: 066212 Name: SYDNEY OLYMPIC PARK AWS (ARCHERY CENTRE) Lat: -33.83 Lon: 151.07 Height: 4.0 m
Data from the previous 72 hours. | See also: Recent months at Sydney Olympic Park
Date/Time
EDT
Temp
°C
App
Temp
°C
Dew
Point
Rel
Hum
%
Delta-T
°C
Wind Press
QNH
hPa
Press
MSL
hPa
Rain
since 9 am
mm
Dir
 
Spd
km/h
Gust
km/h
Spd
kts
Gust
kts
20/01:30pm 23.5 22.5 14.5 57 5.3 E 13 19 7 10 - - 0.0
20/01:00pm 23.2 22.7 13.9 56 5.4 ENE 9 19 5 10 - - 0.0
20/12:30pm 23.4 23.5 14.4 57 5.3 E 7 17 4 9 - - 0.0
20/12:00pm 23.7 23.6 14.9 57 5.2 E 9 19 5 10 - - 0.0
20/11:30am 23.3 23.6 13.5 54 5.7 ENE 4 9 2 5 - - 0.0
20/11:00am 22.5 22.2 12.7 54 5.6 NE 6 13 3 7 - - 0.0
20/10:30am 21.1 20.2 11.4 54 5.4 ENE 7 9 4 5 - - 0.0
20/10:00am 21.2 20.2 12.3 57 5.0 SE 9 13 5 7 - - 0.0
20/09:30am 21.1 20.6 12.5 58 4.9 ESE 7 11 4 6 - - 0.0
20/09:00am 20.5 19.4 12.0 58 4.7 ESE 9 17 5 9 - - 0.0
20/08:30am 20.6 21.7 13.6 64 4.0 CALM 0 0 0 0 - - 0.0
20/08:00am 19.0 20.4 14.3 74 2.7 CALM 0 0 0 0 - - 0.0
20/07:30am 18.0 19.4 14.3 79 2.1 CALM 0 0 0 0 - - 0.0
20/07:00am 17.1 17.8 14.4 84 1.5 NNW 4 7 2 4 - - 0.0
20/06:30am 16.9 17.2 13.4 80 2.0 S 4 7 2 4 - - 0.0
20/05:30am 17.4 17.2 12.9 75 2.5 S 6 9 3 5 - - 0.0
20/05:00am 17.4 18.4 13.3 77 2.3 CALM 0 7 0 4 - - 0.0
20/04:30am 17.3 18.2 13.0 76 2.4 CALM 0 6 0 3 - - 0.0
20/04:00am 17.5 17.5 12.4 72 2.8 SE 4 6 2 3 - - 0.0
20/03:30am 18.0 17.4 12.2 69 3.2 SSE 7 13 4 7 - - 0.0
20/03:00am 18.0 17.6 12.5 70 3.1 SE 6 7 3 4 - - 0.0
20/02:30am 18.1 17.2 12.5 70 3.1 SE 9 15 5 8 - - 0.0
20/02:00am 18.3 17.7 12.3 68 3.3 SE 7 13 4 7 - - 0.0
20/01:30am 18.6 17.7 12.6 68 3.4 SE 9 15 5 8 - - 0.0
20/01:00am 18.7 18.2 12.5 67 3.5 SE 7 11 4 6 - - 0.0
20/12:30am 18.6 17.6 12.4 67 3.5 SE 9 13 5 7 - - 0.0
20/12:00am 18.9 17.5 12.2 65 3.7 SSE 11 17 6 9 - - 0.0
 
Date/Time
EDT
Temp
°C
App
Temp
°C
Dew
Point
Rel
Hum
%
Delta-T
°C
Wind Press
QNH
hPa
Press
MSL
hPa
Rain
since 9 am
mm
Dir
 
Spd
km/h
Gust
km/h
Spd
kts
Gust
kts
19/11:30pm 18.8 17.7 12.1 65 3.7 SSE 9 15 5 8 - - 0.0
19/11:00pm 18.9 17.0 11.7 63 4.0 SE 13 19 7 10 - - 0.0
19/10:30pm 19.0 16.7 11.6 62 4.1 SE 15 22 8 12 - - 0.0
19/10:00pm 19.0 17.5 12.0 64 3.9 SE 11 20 6 11 - - 0.0
19/09:30pm 19.0 17.5 12.0 64 3.9 SE 11 15 6 8 - - 0.0
19/09:00pm 19.1 17.1 11.4 61 4.2 SSE 13 24 7 13 - - 0.0
19/08:30pm 19.1 16.8 11.7 62 4.1 SE 15 20 8 11 - - 0.0
19/08:00pm 19.2 16.8 11.5 61 4.2 SE 15 24 8 13 - - 0.0
19/07:30pm 19.1 16.3 11.4 61 4.2 SE 17 22 9 12 - - 0.0
19/07:00pm 19.2 16.8 11.5 61 4.2 SSE 15 22 8 12 - - 0.0
19/06:30pm 19.5 16.5 11.8 61 4.3 SE 19 26 10 14 - - 0.0
19/06:00pm 19.5 16.5 12.0 62 4.2 SE 19 26 10 14 - - 0.0
19/05:30pm 20.3 17.0 11.5 57 4.9 SE 20 30 11 16 - - 0.0
19/05:00pm 20.8 17.7 12.2 58 4.8 SE 20 32 11 17 - - 0.0
19/04:30pm 21.2 18.1 12.3 57 5.0 SSE 20 32 11 17 - - 0.0
19/04:00pm 21.3 18.1 11.9 55 5.3 SSE 20 35 11 19 - - 0.0
19/03:30pm 21.6 18.5 11.6 53 5.6 SE 19 37 10 20 - - 0.0
19/03:00pm 22.0 19.5 14.1 61 4.6 SSE 20 32 11 17 - - 0.0
19/02:30pm 21.4 18.4 12.5 57 5.0 SE 20 32 11 17 - - 0.0
19/02:00pm 21.8 19.1 12.9 57 5.1 SE 19 32 10 17 - - 0.0
19/01:30pm 20.6 17.1 12.1 58 4.8 SE 22 32 12 17 - - 0.0
19/01:00pm 21.1 18.2 12.8 59 4.7 SE 20 30 11 16 - - 0.0
19/12:30pm 21.1 17.5 13.0 60 4.6 SE 24 35 13 19 - - 0.0
19/12:00pm 21.4 17.5 13.3 60 4.6 ESE 26 35 14 19 - - 0.0
19/11:30am 21.1 18.7 14.3 65 4.0 ESE 20 30 11 16 - - 0.0
19/11:00am 21.3 19.0 14.2 64 4.1 SE 19 30 10 16 - - 0.0
19/10:30am 21.7 19.2 14.1 62 4.4 SE 20 33 11 18 - - 0.0
19/10:00am 21.7 19.0 13.6 60 4.7 SE 20 26 11 14 - - 0.0
19/09:30am 21.2 18.7 13.4 61 4.5 SSE 19 28 10 15 - - 0.0
19/09:00am 20.7 18.7 13.9 65 3.9 S 17 26 9 14 - - 0.0
19/08:30am 20.3 17.7 13.3 64 4.0 SSE 19 30 10 16 - - 0.0
19/08:00am 19.7 15.9 13.6 68 3.5 SSE 26 37 14 20 - - 0.0
19/07:30am 19.5 17.1 13.9 70 3.2 SSE 19 33 10 18 - - 0.0
19/07:00am 18.7 16.9 14.4 76 2.5 S 17 32 9 17 - - 0.0
19/06:30am 18.0 16.5 15.3 84 1.6 SSE 17 26 9 14 - - 0.0
19/06:00am 17.9 16.8 15.3 85 1.5 SSE 15 24 8 13 - - 0.0
19/05:30am 18.0 16.5 15.4 85 1.5 SSE 17 30 9 16 - - 0.0
19/05:00am 18.0 17.1 15.8 87 1.3 SSE 15 26 8 14 - - 0.0
19/04:30am 18.6 17.0 16.6 88 1.2 SSE 20 37 11 20 - - 0.0
19/04:27am 18.7 16.4 16.7 88 1.2 SSE 24 37 13 20 - - 0.0
19/04:00am 19.2 21.3 18.9 98 0.2 WNW 6 11 3 6 - - 0.0
19/03:48am 19.6 21.7 19.3 98 0.2 WNW 7 11 4 6 - - 0.0
19/03:30am 20.0 21.9 19.7 98 0.2 WNW 9 15 5 8 - - 0.0
19/03:02am 19.9 22.1 19.6 98 0.2 WNW 7 11 4 6 - - 0.0
19/03:00am 19.9 22.1 19.6 98 0.2 WNW 7 11 4 6 - - 0.0
19/02:30am 20.1 22.4 19.8 98 0.2 WNW 7 9 4 5 - - 0.0
19/02:00am 19.2 21.6 18.9 98 0.2 WNW 4 7 2 4 - - 0.0
19/01:30am 19.8 23.3 19.5 98 0.2 CALM 0 0 0 0 - - 0.0
19/01:05am 19.5 22.8 19.2 98 0.2 CALM 0 0 0 0 - - 0.0
19/01:00am 19.6 23.0 19.3 98 0.2 CALM 0 0 0 0 - - 0.0
19/12:30am 19.9 23.4 19.6 98 0.2 CALM 0 0 0 0 - - 0.0
19/12:12am 20.0 23.6 19.7 98 0.2 CALM 0 0 0 0 - - 0.0
19/12:05am 20.1 23.7 19.8 98 0.2 CALM 0 0 0 0 - - 0.0
19/12:00am 20.2 23.9 19.9 98 0.2 CALM 0 0 0 0 - - 0.0
 
Date/Time
EDT
Temp
°C
App
Temp
°C
Dew
Point
Rel
Hum
%
Delta-T
°C
Wind Press
QNH
hPa
Press
MSL
hPa
Rain
since 9 am
mm
Dir
 
Spd
km/h
Gust
km/h
Spd
kts
Gust
kts
18/11:30pm 20.6 24.5 20.3 98 0.2 CALM 0 0 0 0 - - 0.0
18/11:28pm 20.7 24.6 20.4 98 0.2 CALM 0 0 0 0 - - 0.0
18/11:20pm 20.7 24.6 20.4 98 0.2 CALM 0 0 0 0 - - 0.0
18/11:08pm 20.9 24.9 20.6 98 0.2 CALM 0 0 0 0 - - 0.0
18/11:00pm 21.2 25.4 20.9 98 0.2 CALM 0 0 0 0 - - 0.0
18/10:30pm 21.4 25.0 20.6 95 0.5 SE 2 7 1 4 - - 0.0
18/10:00pm 22.2 25.9 20.8 92 0.9 E 2 7 1 4 - - 0.0
18/09:30pm 22.8 26.7 21.1 90 1.1 E 2 7 1 4 - - 0.0
18/09:00pm 23.0 25.9 20.7 87 1.5 E 6 11 3 6 - - 0.0
18/08:30pm 23.7 26.6 21.0 85 1.8 ENE 7 13 4 7 - - 0.0
18/08:00pm 24.1 26.6 21.0 83 2.0 NE 9 17 5 9 - - 0.0
18/07:30pm 24.5 26.1 20.8 80 2.4 ENE 13 24 7 13 - - 0.0
18/07:00pm 24.8 25.5 20.5 77 2.8 E 17 26 9 14 - - 0.0
18/06:30pm 25.2 26.4 20.7 76 2.9 E 15 24 8 13 - - 0.0
18/06:00pm 25.4 25.8 20.9 76 3.0 E 20 32 11 17 - - 0.0
18/05:30pm 26.0 26.6 21.0 74 3.3 ESE 19 28 10 15 - - 0.0
18/05:00pm 26.2 27.7 21.2 74 3.3 ESE 15 22 8 12 - - 0.0
18/04:30pm 26.0 27.3 20.1 70 3.8 E 13 19 7 10 - - 0.0
18/04:00pm 26.3 27.7 20.4 70 3.9 ENE 13 20 7 11 - - 0.0
18/03:30pm 25.7 26.4 19.6 69 3.9 E 15 22 8 12 - - 0.0
18/03:00pm 26.2 27.5 20.1 69 4.0 ENE 13 22 7 12 - - 0.0
18/02:30pm 26.2 28.1 19.8 68 4.2 ENE 9 20 5 11 - - 0.0
18/02:00pm 25.0 26.2 19.1 70 3.8 ENE 11 17 6 9 - - 0.0
18/01:30pm 26.0 27.3 20.1 70 3.8 ENE 13 20 7 11 - - 0.0
18/01:00pm 24.6 25.7 18.8 70 3.7 NE 11 20 6 11 - - 0.0
18/12:30pm 24.0 25.4 18.6 72 3.4 E 9 15 5 8 - - 0.0
18/12:00pm 23.2 24.7 18.1 73 3.2 E 7 15 4 8 - - 0.0
18/11:30am 22.7 24.4 18.5 77 2.6 E 7 11 4 6 - - 0.0
18/11:00am 21.9 24.3 17.9 78 2.5 WNW 2 6 1 3 - - 0.0
18/10:30am 21.3 24.2 18.1 82 2.0 CALM 0 0 0 0 - - 0.0
18/10:00am 19.7 20.8 17.1 85 1.6 WNW 7 9 4 5 - - 0.0
18/09:30am 19.2 20.8 17.0 87 1.3 SW 4 9 2 5 - - 0.0
18/09:00am 18.8 19.9 16.6 87 1.3 W 6 9 3 5 - - 0.0
18/08:30am 18.6 19.6 16.8 89 1.1 WSW 7 11 4 6 - - 0.0
18/08:00am 18.2 19.1 16.5 90 1.0 WSW 7 11 4 6 - - 0.0
18/07:30am 18.0 18.9 16.7 92 0.8 W 7 11 4 6 - - 0.0
18/07:27am 18.0 18.9 16.7 92 0.8 W 7 11 4 6 - - 0.0
18/07:08am 17.9 18.7 16.4 91 0.9 WNW 7 11 4 6 - - 0.0
18/07:00am 17.9 18.7 16.4 91 0.9 WNW 7 11 4 6 - - 0.0
18/06:30am 18.0 18.8 16.3 90 1.0 W 7 11 4 6 - - 0.0
18/06:29am 17.9 18.6 16.1 89 1.1 W 7 11 4 6 - - 0.0
18/06:09am 18.0 18.7 16.0 88 1.2 W 7 11 4 6 - - 0.0
18/06:00am 18.1 18.7 15.9 87 1.3 W 7 13 4 7 - - 0.0
18/05:30am 18.2 18.8 15.8 86 1.4 W 7 11 4 6 - - 0.0
18/05:00am 18.3 19.0 15.7 85 1.5 WSW 6 9 3 5 - - 0.0
18/04:30am 18.4 18.9 15.5 83 1.7 SW 7 11 4 6 - - 0.0
18/04:00am 18.7 20.1 15.4 81 1.9 WSW 2 7 1 4 - - 0.0
18/03:30am 18.5 20.0 15.7 84 1.7 SW 2 6 1 3 - - 0.0
18/03:00am 18.4 19.9 15.6 84 1.6 WNW 2 7 1 4 - - 0.0
18/02:30am 18.6 20.5 15.8 84 1.7 CALM 0 0 0 0 - - 0.0
18/02:00am 18.7 20.7 15.9 84 1.7 CALM 0 0 0 0 - - 0.0
18/01:30am 18.6 19.2 15.3 81 1.9 SW 6 7 3 4 - - 0.0
18/01:00am 18.5 20.4 15.7 84 1.7 CALM 0 0 0 0 - - 0.0
18/12:30am 18.8 20.7 15.7 82 1.8 CALM 0 0 0 0 - - 0.0
18/12:00am 19.0 19.8 14.9 77 2.4 E 4 9 2 5 - - 0.0
 
Date/Time
EDT
Temp
°C
App
Temp
°C
Dew
Point
Rel
Hum
%
Delta-T
°C
Wind Press
QNH
hPa
Press
MSL
hPa
Rain
since 9 am
mm
Dir
 
Spd
km/h
Gust
km/h
Spd
kts
Gust
kts
17/11:30pm 18.7 19.1 15.4 81 1.9 N 7 11 4 6 - - 0.0
17/11:00pm 19.0 19.2 14.7 76 2.5 NNE 7 13 4 7 - - 0.0
17/10:30pm 18.9 19.2 14.4 75 2.6 N 6 11 3 6 - - 0.0
17/10:00pm 19.4 19.5 14.0 71 3.1 NE 6 11 3 6 - - 0.0
17/09:30pm 19.4 19.0 14.0 71 3.1 E 9 13 5 7 - - 0.0
17/09:00pm 19.4 18.5 13.6 69 3.3 ENE 11 20 6 11 - - 0.0
17/08:30pm 19.3 17.8 13.2 68 3.5 ESE 13 19 7 10 - - 0.0
17/08:00pm 19.4 17.6 13.3 68 3.5 E 15 28 8 15 - - 0.0
17/07:30pm 19.5 18.1 13.4 68 3.5 ESE 13 19 7 10 - - 0.0
17/07:00pm 19.6 17.6 13.8 69 3.3 SE 17 24 9 13 - - 0.0
17/06:30pm 19.7 18.5 13.9 69 3.3 SE 13 19 7 10 - - 0.0
17/06:00pm 19.6 17.6 13.8 69 3.3 SE 17 26 9 14 - - 0.0
17/05:30pm 19.9 17.9 13.8 68 3.5 SE 17 26 9 14 - - 0.0
17/05:00pm 20.2 18.3 14.1 68 3.5 SSE 17 26 9 14 - - 0.0
17/04:30pm 20.4 18.5 14.1 67 3.6 SSE 17 24 9 13 - - 0.0
17/04:00pm 20.6 18.5 13.6 64 4.0 SE 17 24 9 13 - - 0.0
17/03:30pm 21.0 18.5 13.4 62 4.4 SE 19 28 10 15 - - 0.0
17/03:00pm 21.1 18.6 14.0 64 4.1 SE 20 30 11 16 - - 0.0
17/02:30pm 21.1 18.4 13.5 62 4.4 SE 20 30 11 16 - - 0.0
17/02:00pm 22.8 21.2 15.9 65 4.2 SE 19 30 10 16 - - 0.0

Other Formats:

Comma delimited format used in spreadsheet applications
http://www.bom.gov.au/fwo/IDN60801/IDN60801.95765.axf

JavaScript Object Notation format (JSON) in row-major order
http://www.bom.gov.au/fwo/IDN60801/IDN60801.95765.json